ASN logo
ASN Wikibase Occurrence # 238131
Last updated: 16 July 2020
This information is added by users of ASN. Neither ASN nor the Flight Safety Foundation are responsible for the completeness or correctness of this information. If you feel this information is incomplete or incorrect, you can submit corrected information.

Date:15-JUL-2020
Time:c. 19:20 LT
Type:Silhouette image of generic C210 model; specific model in this crash may look slightly different
Cessna T210K Turbo Centurion
Owner/operator:Private
Registration: N8292M
C/n / msn: 21059292
Fatalities:Fatalities: 0 / Occupants: 0
Other fatalities:0
Aircraft damage: Minor
Location:Querétaro International Airport (QRO/MMQT) -   Mexico
Phase: Standing
Nature:-
Departure airport:-
Destination airport:-
Narrative:
A Cessna T210K Turbo Centurionwas flipped upside down in a powerful storm at Querétaro International Airport (QRO/MMQT), Mexico.

Weather report at the time of the storm:
MMQT 160041Z 13016KT 3SM TSRA BKN020CB OVC025 13/13 A3027 RMK 60675 8/3//
MMQT 160021Z 11032G54KT 0SM TSRAGR BKN010 OVC020CB 15/14 A3022 RMK 8/3//
MMQT 160013Z 09018KT 3SM TSRA BKN010CB BKN020 BKN200 26/13 A3024 RMK 8/362

Sources:

http://www.goklerdeyiz.net/ucaklar-ruzgardan-savruldu/
https://rotativo.com.mx/2020/07/15/noticias/metropoli/queretaro/tormenta-de-granizo-causa-danos-al-aeropuerto-de-queretaro-848079/


Revision history:

Date/timeContributorUpdates
16-Jul-2020 08:54 Goklerdeyiz Added
16-Jul-2020 08:55 harro Updated [Aircraft type, Cn, Total occupants, Other fatalities, Location, Nature, Departure airport, Destination airport, Narrative]
16-Jul-2020 09:02 harro Updated [Time, Source, Embed code, Narrative]
16-Jul-2020 09:03 harro Updated [Date, Embed code]
16-Jul-2020 09:21 RobertMB Updated [Aircraft type, Operator, Narrative]

Corrections or additions? ... Edit this accident description